Time;durP1;ratioP1;P1;durP2;ratioP2;P2;SDS_P1;SDS_P2;PMS_P1;PMS_P2;Temp;Humidity;BMP_temperature;BMP_pressure;BME280_temperature;BME280_humidity;BME280_pressure;Samples;Min_cycle;Max_cycle;Signal;HPM_P1;HPM_P2
2022/09/24 00:00:56;;;;;;;10.32;6.72;;;;;;;8.64;100.00;99653.91;1715188;83;21132;-67
2022/09/24 00:03:25;;;;;;;12.25;6.55;;;;;;;8.66;100.00;99659.95;1715374;83;21101;-66
2022/09/24 00:05:53;;;;;;;10.65;6.67;;;;;;;8.67;100.00;99653.78;1714124;83;21061;-67
2022/09/24 00:08:20;;;;;;;9.88;6.53;;;;;;;8.67;100.00;99652.47;1715199;83;21212;-67
2022/09/24 00:10:48;;;;;;;8.60;6.62;;;;;;;8.69;100.00;99650.19;1714996;83;21149;-67
2022/09/24 00:13:16;;;;;;;13.25;7.20;;;;;;;8.72;100.00;99643.96;1715353;83;21045;-68
2022/09/24 00:15:46;;;;;;;8.88;6.62;;;;;;;8.72;100.00;99642.64;1715239;83;21037;-65
2022/09/24 00:18:15;;;;;;;9.45;6.08;;;;;;;8.73;100.00;99645.69;1715443;82;21124;-66
2022/09/24 00:20:42;;;;;;;7.83;6.45;;;;;;;8.74;100.00;99642.14;1715281;83;21072;-66
2022/09/24 00:23:09;;;;;;;9.63;6.70;;;;;;;8.75;100.00;99652.59;1715210;83;21027;-67
2022/09/24 00:28:30;;;;;;;10.80;8.10;;;;;;;8.77;100.00;99642.89;1744818;82;21649;-65
2022/09/24 00:31:00;;;;;;;11.73;7.33;;;;;;;8.79;100.00;99641.53;1744909;82;21088;-67
2022/09/24 00:33:27;;;;;;;11.43;7.65;;;;;;;8.79;100.00;99640.22;1745026;82;21150;-67
2022/09/24 00:36:03;;;;;;;11.55;7.28;;;;;;;8.81;100.00;99638.36;1744966;82;21057;-67
2022/09/24 00:38:33;;;;;;;11.50;7.65;;;;;;;8.82;100.00;99637.47;1744972;82;21050;-65
2022/09/24 00:41:00;;;;;;;16.47;8.37;;;;;;;8.82;100.00;99637.47;1745114;82;21007;-66
2022/09/24 00:43:33;;;;;;;11.60;7.70;;;;;;;8.82;100.00;99641.41;1745408;82;22126;-66
2022/09/24 00:46:29;;;;;;;12.33;8.53;;;;;;;8.82;100.00;99634.84;1745020;82;21236;-67
2022/09/24 00:49:03;;;;;;;13.35;8.20;;;;;;;8.83;100.00;99632.60;1745237;82;21062;-67
2022/09/24 00:51:30;;;;;;;15.32;7.92;;;;;;;8.84;100.00;99629.55;1745064;82;21013;-67
2022/09/24 00:54:00;;;;;;;15.53;8.98;;;;;;;8.86;100.00;99625.94;1744877;82;21037;-65
2022/09/24 00:56:28;;;;;;;15.85;8.03;;;;;;;8.88;100.00;99629.38;1717864;82;21061;-67
2022/09/24 00:58:55;;;;;;;12.65;7.85;;;;;;;8.90;100.00;99635.39;1715160;83;21141;-68
2022/09/24 01:01:23;;;;;;;11.03;7.67;;;;;;;8.90;100.00;99624.89;1715360;83;21159;-66
2022/09/24 01:03:52;;;;;;;14.75;8.93;;;;;;;8.92;100.00;99622.22;1715413;83;21088;-66
2022/09/24 01:06:18;;;;;;;11.57;8.43;;;;;;;8.92;100.00;99623.06;1715147;83;21065;-67
2022/09/24 01:08:46;;;;;;;12.90;8.00;;;;;;;8.93;100.00;99624.79;1715267;83;21033;-68
2022/09/24 01:11:30;;;;;;;11.45;7.85;;;;;;;8.95;100.00;99624.71;1715320;83;21247;-66
2022/09/24 01:14:12;;;;;;;8.43;5.97;;;;;;;8.96;100.00;99626.44;1715007;83;21502;-67
2022/09/24 01:16:53;;;;;;;10.20;7.03;;;;;;;8.96;100.00;99627.29;1715040;82;21137;-67
2022/09/24 01:20:10;;;;;;;9.73;7.17;;;;;;;8.96;100.00;99624.66;1715256;83;26603;-67
2022/09/24 01:22:49;;;;;;;12.90;7.92;;;;;;;8.97;100.00;99626.39;1714997;83;21065;-66
2022/09/24 01:25:46;;;;;;;12.47;6.87;;;;;;;9.00;100.00;99622.33;1715313;83;21491;-67
2022/09/24 01:28:22;;;;;;;14.58;8.13;;;;;;;9.03;100.00;99623.51;1715078;82;21820;-67
2022/09/24 01:30:50;;;;;;;11.10;8.70;;;;;;;9.06;100.00;99626.94;1715620;83;21100;-67
2022/09/24 01:33:19;;;;;;;9.85;7.33;;;;;;;9.05;100.00;99627.86;1715206;81;21089;-67
2022/09/24 01:35:55;;;;;;;12.80;8.15;;;;;;;9.03;100.00;99625.28;1715255;83;21053;-67
2022/09/24 01:38:28;;;;;;;15.45;8.28;;;;;;;9.05;100.00;99626.55;1715306;83;22093;-67
2022/09/24 01:40:58;;;;;;;12.53;8.03;;;;;;;9.03;100.00;99620.87;1715135;83;21058;-67
2022/09/24 01:43:26;;;;;;;15.63;8.95;;;;;;;9.05;100.00;99625.23;1715043;83;21128;-66
2022/09/24 01:45:58;;;;;;;12.43;9.10;;;;;;;9.04;100.00;99624.36;1715327;83;21046;-66
2022/09/24 01:48:24;;;;;;;;;;;;;;;9.04;100.00;99628.30;1717830;83;21628;-67
2022/09/24 01:51:13;;;;;;;11.03;8.43;;;;;;;9.02;100.00;99625.75;1715634;83;21822;-66
2022/09/24 01:53:54;;;;;;;11.38;8.43;;;;;;;8.99;100.00;99623.22;1715497;83;21062;-66
2022/09/24 01:56:43;;;;;;;17.42;8.53;;;;;;;8.96;100.00;99624.66;1715297;83;21089;-67
2022/09/24 01:59:33;;;;;;;10.63;8.93;;;;;;;8.96;100.00;99625.98;1715420;83;21556;-64
2022/09/24 02:02:05;;;;;;;14.98;8.75;;;;;;;8.95;100.00;99626.91;1739423;82;21030;-65
2022/09/24 02:04:37;;;;;;;14.23;8.20;;;;;;;8.94;100.00;99629.12;1744991;82;21201;-67
2022/09/24 02:07:14;;;;;;;9.60;7.45;;;;;;;8.95;100.00;99624.71;1744080;82;21072;-66
2022/09/24 02:09:42;;;;;;;9.40;7.42;;;;;;;8.95;100.00;99623.40;1745002;82;21041;-67
2022/09/24 02:12:30;;;;;;;9.73;7.03;;;;;;;8.95;100.00;99625.59;1745016;82;21087;-66
2022/09/24 02:15:02;;;;;;;10.08;7.70;;;;;;;8.96;100.00;99631.23;1745035;82;21135;-66
2022/09/24 02:17:32;;;;;;;11.03;8.25;;;;;;;8.95;100.00;99624.28;1745009;82;21217;-65
2022/09/24 02:20:01;;;;;;;13.10;8.30;;;;;;;8.97;100.00;99630.77;1744703;80;21049;-65
2022/09/24 02:22:29;;;;;;;10.38;8.48;;;;;;;8.97;100.00;99630.33;1745281;82;21089;-66
2022/09/24 02:24:58;;;;;;;11.68;8.75;;;;;;;8.99;100.00;99629.78;1748317;79;21538;-66
2022/09/24 02:27:29;;;;;;;17.20;8.75;;;;;;;8.99;100.00;99631.09;1745140;82;21084;-66
2022/09/24 02:29:55;;;;;;;9.73;7.83;;;;;;;8.98;100.00;99630.72;1743761;82;21301;-66
2022/09/24 02:32:22;;;;;;;12.07;7.72;;;;;;;8.97;100.00;99634.27;1745212;82;21065;-67
2022/09/24 02:34:51;;;;;;;12.03;8.13;;;;;;;8.96;100.00;99630.38;1744819;82;21081;-67
2022/09/24 02:37:19;;;;;;;9.93;7.15;;;;;;;8.97;100.00;99633.39;1745234;82;21077;-66
2022/09/24 02:39:45;;;;;;;13.90;8.85;;;;;;;8.94;100.00;99628.27;1749378;81;21041;-66
2022/09/24 02:42:13;;;;;;;12.28;7.75;;;;;;;8.94;100.00;99638.31;1745372;82;21017;-66
2022/09/24 02:44:39;;;;;;;9.93;7.10;;;;;;;8.94;100.00;99633.05;1744945;82;21712;-66
2022/09/24 02:47:06;;;;;;;10.18;7.47;;;;;;;8.94;100.00;99636.99;1745133;82;21139;-66
2022/09/24 02:49:33;;;;;;;11.68;7.70;;;;;;;8.93;100.00;99637.08;1745266;82;21030;-66
2022/09/24 02:51:59;;;;;;;9.35;7.12;;;;;;;8.91;100.00;99638.44;1745377;82;21042;-66
2022/09/24 02:54:27;;;;;;;10.48;6.53;;;;;;;8.90;100.00;99639.80;1745200;82;22072;-67
2022/09/24 02:56:54;;;;;;;10.13;7.10;;;;;;;8.88;100.00;99635.94;1745205;82;21033;-67
2022/09/24 02:59:21;;;;;;;11.95;6.85;;;;;;;8.88;100.00;99634.63;1745174;82;21102;-67
2022/09/24 03:01:48;;;;;;;9.15;7.42;;;;;;;8.87;100.00;99638.14;1744814;82;21050;-66
2022/09/24 03:04:16;;;;;;;14.68;8.10;;;;;;;8.88;100.00;99638.56;1745295;82;21045;-67
2022/09/24 03:06:42;;;;;;;9.38;7.42;;;;;;;8.88;100.00;99638.56;1745424;82;21106;-66
2022/09/24 03:09:11;;;;;;;11.90;7.60;;;;;;;8.87;100.00;99634.20;1745059;82;20995;-67
2022/09/24 03:11:38;;;;;;;10.82;7.72;;;;;;;8.87;100.00;99635.52;1745339;82;21081;-65
2022/09/24 03:14:07;;;;;;;9.45;6.58;;;;;;;8.87;100.00;99643.39;1745257;82;21350;-66
2022/09/24 03:16:33;;;;;;;14.05;7.50;;;;;;;8.87;100.00;99643.39;1745104;82;21097;-67
2022/09/24 03:19:00;;;;;;;9.50;6.40;;;;;;;8.86;100.00;99636.45;1745003;81;21083;-66
2022/09/24 03:21:27;;;;;;;13.80;7.45;;;;;;;8.87;100.00;99643.86;1744988;82;21538;-66
2022/09/24 03:23:53;;;;;;;10.50;6.65;;;;;;;8.87;100.00;99646.02;1745363;82;21541;-67
2022/09/24 03:26:20;;;;;;;10.50;7.30;;;;;;;8.87;100.00;99643.86;1745042;82;21041;-66
2022/09/24 03:28:47;;;;;;;10.00;6.92;;;;;;;8.86;100.00;99640.38;1745197;82;21006;-65
2022/09/24 03:31:13;;;;;;;9.15;5.97;;;;;;;8.85;100.00;99637.34;1745406;82;21764;-66
2022/09/24 03:33:45;;;;;;;12.23;7.67;;;;;;;8.84;100.00;99643.52;1745286;82;21041;-65
2022/09/24 03:36:24;;;;;;;11.75;6.95;;;;;;;8.83;100.00;99644.42;1745186;82;21057;-67
2022/09/24 03:38:55;;;;;;;11.48;8.15;;;;;;;8.80;100.00;99640.14;1745563;82;21011;-68
2022/09/24 03:41:23;;;;;;;11.25;7.50;;;;;;;8.75;100.00;99641.24;1745202;82;21030;-66
2022/09/24 03:43:50;;;;;;;8.80;6.75;;;;;;;8.74;100.00;99640.83;1745299;82;21550;-67
2022/09/24 03:46:16;;;;;;;9.15;7.17;;;;;;;8.72;100.00;99640.91;1745012;82;21013;-67
2022/09/24 03:48:42;;;;;;;9.63;7.90;;;;;;;8.71;100.00;99643.58;1744990;82;21050;-68
2022/09/24 03:51:17;;;;;;;10.08;7.97;;;;;;;8.71;100.00;99643.58;1744809;82;21625;-66
2022/09/24 03:53:46;;;;;;;9.30;7.58;;;;;;;8.70;100.00;99640.56;1745370;82;21128;-68
2022/09/24 03:56:14;;;;;;;11.85;7.47;;;;;;;8.68;100.00;99645.02;1744864;82;21126;-66
2022/09/24 03:58:46;;;;;;;14.13;7.70;;;;;;;8.65;100.00;99645.98;1744824;82;21077;-66
2022/09/24 04:01:11;;;;;;;13.15;7.97;;;;;;;8.64;100.00;99641.63;1744721;81;21010;-67
2022/09/24 04:03:39;;;;;;;11.50;7.28;;;;;;;8.66;100.00;99648.14;1745259;82;21042;-66
2022/09/24 04:06:06;;;;;;;8.75;6.75;;;;;;;8.67;100.00;99644.59;1745205;82;21627;-65
2022/09/24 04:08:33;;;;;;;8.38;7.08;;;;;;;8.66;100.00;99641.12;1745491;82;21597;-67
2022/09/24 04:10:59;;;;;;;10.68;7.85;;;;;;;8.68;100.00;99646.33;1744720;82;21101;-66
2022/09/24 04:13:25;;;;;;;10.53;7.95;;;;;;;8.69;100.00;99638.83;1745263;82;21045;-67
2022/09/24 04:15:53;;;;;;;8.70;6.80;;;;;;;8.69;100.00;99644.09;1744791;82;21580;-66
2022/09/24 04:18:20;;;;;;;9.95;7.78;;;;;;;8.70;100.00;99639.25;1751964;81;21065;-66
2022/09/24 04:20:47;;;;;;;12.10;7.45;;;;;;;8.70;100.00;99645.81;1760996;81;21863;-68
2022/09/24 04:23:14;;;;;;;12.07;7.70;;;;;;;8.70;100.00;99643.19;1761142;81;21041;-67
2022/09/24 04:25:40;;;;;;;13.28;7.17;;;;;;;8.70;100.00;99647.12;1761614;81;21074;-66
2022/09/24 04:28:08;;;;;;;10.75;7.00;;;;;;;8.70;100.00;99647.12;1761153;81;21658;-66
2022/09/24 04:30:35;;;;;;;12.28;7.40;;;;;;;8.74;100.00;99651.33;1761638;81;21015;-67
2022/09/24 04:33:04;;;;;;;12.15;7.42;;;;;;;8.73;100.00;99643.06;1761193;81;21074;-66
2022/09/24 04:35:34;;;;;;;10.28;7.25;;;;;;;8.75;100.00;99643.87;1761482;81;21038;-66
2022/09/24 04:38:01;;;;;;;9.43;6.95;;;;;;;8.79;100.00;99652.03;1761321;81;21034;-67
2022/09/24 04:40:28;;;;;;;9.33;6.72;;;;;;;8.80;100.00;99648.48;1761119;81;21042;-66
2022/09/24 04:42:55;;;;;;;10.72;7.10;;;;;;;8.79;100.00;99646.78;1761209;81;21614;-67
2022/09/24 04:45:23;;;;;;;9.10;7.08;;;;;;;8.82;100.00;99645.34;1761253;81;21965;-66
2022/09/24 04:47:54;;;;;;;10.50;6.97;;;;;;;8.85;100.00;99650.47;1761447;81;21456;-67
2022/09/24 04:50:20;;;;;;;9.43;6.78;;;;;;;8.89;100.00;99645.52;1760887;81;21072;-67
2022/09/24 04:52:49;;;;;;;8.53;6.58;;;;;;;8.92;100.00;99646.70;1760281;81;21082;-68
2022/09/24 04:55:16;;;;;;;9.80;6.58;;;;;;;8.95;100.00;99650.54;1748174;81;21086;-65
2022/09/24 04:57:45;;;;;;;8.78;6.70;;;;;;;8.98;100.00;99649.10;1731126;82;21158;-69
2022/09/24 05:00:14;;;;;;;10.03;6.10;;;;;;;9.01;100.00;99641.09;1730953;82;21089;-67
2022/09/24 05:02:41;;;;;;;7.92;6.17;;;;;;;9.02;100.00;99646.77;1731220;82;21065;-66
2022/09/24 05:05:09;;;;;;;9.13;6.95;;;;;;;9.06;100.00;99647.48;1730914;82;21054;-67
2022/09/24 05:07:36;;;;;;;12.80;6.97;;;;;;;9.10;100.00;99649.55;1731386;82;21685;-66
2022/09/24 05:10:05;;;;;;;8.53;7.30;;;;;;;9.13;100.00;99648.11;1730913;81;21199;-65
2022/09/24 05:12:34;;;;;;;8.13;7.10;;;;;;;9.15;100.00;99658.09;1730520;81;21030;-66
2022/09/24 05:15:01;;;;;;;9.15;6.95;;;;;;;9.16;100.00;99655.42;1730725;82;21098;-68
2022/09/24 05:17:29;;;;;;;8.43;6.25;;;;;;;9.20;100.00;99648.27;1730815;82;21050;-67
2022/09/24 05:19:58;;;;;;;7.53;5.72;;;;;;;9.24;100.00;99649.86;1730692;82;21574;-66
2022/09/24 05:22:26;;;;;;;8.03;6.53;;;;;;;9.28;100.00;99655.87;1730891;82;21221;-67
2022/09/24 05:24:53;;;;;;;10.82;7.08;;;;;;;9.29;100.00;99660.19;1731127;82;21092;-67
2022/09/24 05:27:20;;;;;;;10.40;6.50;;;;;;;9.28;100.00;99659.81;1730880;82;22240;-67
2022/09/24 05:29:47;;;;;;;7.10;5.60;;;;;;;9.30;100.00;99657.52;1731127;82;21550;-67
2022/09/24 05:32:17;;;;;;;9.35;6.45;;;;;;;9.30;100.00;99662.77;1730904;82;21002;-67
2022/09/24 05:34:43;;;;;;;8.80;6.03;;;;;;;9.34;100.00;99667.00;1731377;81;21073;-67
2022/09/24 05:37:10;;;;;;;10.55;6.03;;;;;;;9.37;100.00;99662.08;1731018;82;21046;-68
2022/09/24 05:39:37;;;;;;;9.00;6.08;;;;;;;9.39;100.00;99661.09;1731204;82;21612;-67
2022/09/24 05:42:04;;;;;;;8.28;6.35;;;;;;;9.44;100.00;99664.38;1730882;82;21070;-67
2022/09/24 05:44:31;;;;;;;8.28;6.30;;;;;;;9.48;100.00;99660.31;1730893;82;21105;-67
2022/09/24 05:46:59;;;;;;;7.47;6.70;;;;;;;9.51;100.00;99661.06;1730830;82;21019;-67
2022/09/24 05:49:26;;;;;;;7.25;6.00;;;;;;;9.57;100.00;99652.05;1730626;82;21086;-67
2022/09/24 05:51:52;;;;;;;6.87;6.03;;;;;;;9.58;100.00;99659.05;1730878;82;21089;-67
2022/09/24 05:54:19;;;;;;;8.43;6.08;;;;;;;9.62;100.00;99659.32;1731893;81;21506;-67
2022/09/24 05:56:46;;;;;;;9.58;6.45;;;;;;;9.68;100.00;99655.57;1761263;81;21570;-65
2022/09/24 05:59:13;;;;;;;7.90;6.85;;;;;;;9.71;100.00;99654.12;1761421;80;21471;-68
2022/09/24 06:01:39;;;;;;;7.37;6.08;;;;;;;9.73;100.00;99657.11;1761101;81;21078;-68
2022/09/24 06:04:06;;;;;;;9.13;5.90;;;;;;;9.73;100.00;99655.80;1761148;80;21582;-68
2022/09/24 06:06:33;;;;;;;8.08;6.42;;;;;;;9.77;100.00;99659.98;1761154;81;21022;-68
2022/09/24 06:08:59;;;;;;;9.28;5.60;;;;;;;9.81;100.00;99664.20;1761308;81;21575;-69
2022/09/24 06:11:26;;;;;;;7.37;6.10;;;;;;;9.79;100.00;99664.73;1761113;81;21102;-69
2022/09/24 06:13:53;;;;;;;6.97;5.60;;;;;;;9.83;100.00;99664.16;1761107;81;21463;-68
2022/09/24 06:16:19;;;;;;;10.75;6.42;;;;;;;9.86;100.00;99667.50;1761481;81;21117;-69
2022/09/24 06:18:46;;;;;;;8.33;6.12;;;;;;;9.91;100.00;99672.56;1760764;81;21055;-67
2022/09/24 06:21:16;;;;;;;8.98;5.85;;;;;;;9.96;100.00;99670.63;1761035;81;21045;-68
2022/09/24 06:23:44;;;;;;;6.90;5.55;;;;;;;9.99;100.00;99670.95;1761126;81;21777;-67
2022/09/24 06:26:12;;;;;;;7.55;5.60;;;;;;;10.03;100.00;99672.51;1760956;81;21094;-68
2022/09/24 06:28:39;;;;;;;5.47;4.70;;;;;;;10.07;100.00;99681.52;1761308;81;21098;-69
2022/09/24 06:33:05;;;;;;;6.70;5.03;;;;;;;10.06;100.00;99677.20;1796683;79;28083;-68
2022/09/24 06:35:36;;;;;;;8.63;4.97;;;;;;;10.03;100.00;99679.09;1756593;81;21077;-68
2022/09/24 06:38:04;;;;;;;6.72;4.97;;;;;;;10.09;100.00;99686.73;1723255;83;21709;-68
2022/09/24 06:40:33;;;;;;;6.28;4.20;;;;;;;10.11;100.00;99686.21;1723054;83;21612;-67
2022/09/24 06:43:01;;;;;;;9.38;5.20;;;;;;;10.12;100.00;99686.59;1722880;83;21069;-69
2022/09/24 06:45:28;;;;;;;6.50;4.80;;;;;;;10.15;100.00;99690.44;1722799;83;21011;-69
2022/09/24 06:47:57;;;;;;;6.17;4.35;;;;;;;10.18;100.00;99690.76;1722611;83;21576;-68
2022/09/24 06:50:26;;;;;;;5.55;4.30;;;;;;;10.23;100.00;99694.04;1722613;83;21147;-68
2022/09/24 06:52:52;;;;;;;4.70;4.05;;;;;;;10.24;100.00;99683.46;1722713;83;21052;-68
2022/09/24 06:55:20;;;;;;;7.47;4.33;;;;;;;10.28;100.00;99690.34;1719111;83;21000;-68
2022/09/24 06:57:49;;;;;;;8.78;4.53;;;;;;;10.35;100.00;99693.54;1722689;83;21044;-70
2022/09/24 07:00:16;;;;;;;4.67;4.08;;;;;;;10.43;100.00;99693.23;1722848;83;21112;-69
2022/09/24 07:02:43;;;;;;;5.92;3.50;;;;;;;10.50;100.00;99692.03;1722914;83;21127;-66
2022/09/24 07:05:09;;;;;;;6.30;3.27;;;;;;;10.59;100.00;99687.69;1718465;83;21061;-68
2022/09/24 07:07:37;;;;;;;4.25;3.72;;;;;;;10.73;100.00;99690.17;1722879;83;21045;-68
2022/09/24 07:10:07;;;;;;;3.80;3.17;;;;;;;10.88;100.00;99697.37;1722922;83;21613;-69
2022/09/24 07:12:35;;;;;;;6.10;3.42;;;;;;;11.07;100.00;99694.30;1693703;84;21020;-69
2022/09/24 07:15:06;;;;;;;4.70;3.27;;;;;;;11.24;100.00;99692.66;1680640;85;21919;-68
2022/09/24 07:17:33;;;;;;;5.92;3.10;;;;;;;11.39;100.00;99690.63;1680655;85;21061;-67
2022/09/24 07:20:01;;;;;;;3.90;3.10;;;;;;;11.55;100.00;99692.92;1680681;85;21054;-68
2022/09/24 07:22:28;;;;;;;5.00;3.15;;;;;;;11.62;100.00;99697.45;1691472;84;21053;-67
2022/09/24 07:24:56;;;;;;;3.47;2.83;;;;;;;11.73;100.00;99691.62;1691463;84;21116;-68
2022/09/24 07:27:22;;;;;;;9.05;2.80;;;;;;;11.86;100.00;99697.17;1691349;84;21814;-68
2022/09/24 07:29:50;;;;;;;3.08;2.50;;;;;;;11.96;100.00;99690.09;1693924;84;21064;-68
2022/09/24 07:32:17;;;;;;;4.40;2.87;;;;;;;12.09;100.00;99694.75;1671757;85;21150;-68
2022/09/24 07:34:44;;;;;;;3.15;2.40;;;;;;;12.25;100.00;99702.27;1666049;86;21121;-67
2022/09/24 07:37:14;;;;;;;4.45;2.87;;;;;;;12.45;100.00;99701.74;1678678;85;21090;-67
2022/09/24 07:39:41;;;;;;;4.75;2.47;;;;;;;12.58;100.00;99700.14;1678742;85;21564;-67
2022/09/24 07:42:07;;;;;;;4.37;2.77;;;;;;;12.64;100.00;99702.95;1678486;85;21109;-68
2022/09/24 07:44:35;;;;;;;5.40;2.80;;;;;;;12.65;100.00;99709.45;1678088;85;21569;-68
2022/09/24 07:47:01;;;;;;;4.67;2.65;;;;;;;12.74;100.00;99707.66;1678132;85;21050;-67
2022/09/24 07:49:31;;;;;;;3.12;2.60;;;;;;;12.86;100.00;99718.52;1678235;85;21078;-68
2022/09/24 07:51:58;;;;;;;3.58;2.72;;;;;;;12.98;100.00;99707.30;1678136;85;21139;-67
2022/09/24 07:54:25;;;;;;;4.47;2.70;;;;;;;13.12;100.00;99712.70;1678683;85;21054;-68
2022/09/24 07:56:52;;;;;;;3.27;2.62;;;;;;;13.15;100.00;99709.88;1683648;85;21052;-68
2022/09/24 07:59:20;;;;;;;2.95;2.52;;;;;;;13.13;100.00;99710.42;1683731;85;21612;-68
2022/09/24 08:01:50;;;;;;;2.65;2.45;;;;;;;13.29;100.00;99720.20;1683770;85;21101;-68
2022/09/24 08:04:17;;;;;;;3.80;2.30;;;;;;;13.39;100.00;99721.42;1683790;85;21284;-69
2022/09/24 08:06:44;;;;;;;2.85;2.30;;;;;;;13.47;100.00;99726.28;1683693;85;21112;-68
2022/09/24 08:09:10;;;;;;;2.60;2.10;;;;;;;13.51;100.00;99727.83;1683511;85;21048;-67
2022/09/24 08:11:38;;;;;;;2.92;2.42;;;;;;;13.59;100.00;99733.05;1683579;85;21187;-69
2022/09/24 08:14:05;;;;;;;3.62;2.40;;;;;;;13.66;100.00;99738.01;1683267;85;21108;-68
2022/09/24 08:16:32;;;;;;;4.40;3.00;;;;;;;13.68;100.00;99740.10;1683131;85;22266;-69
2022/09/24 08:18:59;;;;;;;2.98;2.20;;;;;;;13.57;100.00;99744.66;1683446;85;21048;-68
2022/09/24 08:21:27;;;;;;;4.40;2.17;;;;;;;13.40;100.00;99745.60;1683792;85;21047;-69
2022/09/24 08:23:55;;;;;;;5.30;2.90;;;;;;;13.23;100.00;99747.34;1683637;85;21116;-68
2022/09/24 08:26:21;;;;;;;2.27;2.08;;;;;;;13.15;100.00;99748.69;1683923;85;21044;-67
2022/09/24 08:28:48;;;;;;;4.83;2.60;;;;;;;13.06;100.00;99755.31;1683495;85;21237;-68
2022/09/24 08:31:15;;;;;;;4.65;2.60;;;;;;;12.93;100.00;99748.96;1683378;85;21147;-67
2022/09/24 08:33:45;;;;;;;3.12;2.45;;;;;;;12.89;100.00;99750.08;1686798;85;21059;-69
2022/09/24 08:36:11;;;;;;;8.20;2.67;;;;;;;12.83;100.00;99750.39;1691108;84;21138;-68
2022/09/24 08:38:39;;;;;;;4.12;2.90;;;;;;;12.82;100.00;99744.73;1690967;84;21048;-69
2022/09/24 08:41:17;;;;;;;3.02;2.58;;;;;;;12.84;100.00;99749.00;1691009;84;21867;-69
2022/09/24 08:44:09;;;;;;;3.50;2.55;;;;;;;12.87;100.00;99742.23;1690741;84;21068;-68
2022/09/24 08:49:45;;;;;;;3.17;2.45;;;;;;;12.91;100.00;99747.74;1691065;84;21009;-67
2022/09/24 08:52:40;;;;;;;6.97;2.30;;;;;;;12.91;100.00;99749.06;1690919;84;21501;-68
2022/09/24 08:55:13;;;;;;;2.83;2.12;;;;;;;13.03;100.00;99747.55;1680064;84;21946;-68
2022/09/24 08:58:06;;;;;;;2.92;2.37;;;;;;;13.19;100.00;99737.86;1660419;86;21184;-68
2022/09/24 09:00:38;;;;;;;2.67;2.35;;;;;;;13.33;100.00;99743.76;1660390;86;21130;-68
2022/09/24 09:03:18;;;;;;;4.47;2.52;;;;;;;13.55;100.00;99750.06;1659860;86;21079;-69
2022/09/24 09:05:57;;;;;;;2.95;2.20;;;;;;;13.78;100.00;99746.57;1660479;85;21126;-68
2022/09/24 09:08:50;;;;;;;2.75;1.90;;;;;;;14.02;100.00;99753.12;1660470;86;21098;-69
2022/09/24 09:11:21;;;;;;;3.55;2.10;;;;;;;14.26;96.75;99743.38;1632345;86;21032;-69
2022/09/24 09:13:58;;;;;;;1.95;1.52;;;;;;;14.31;96.97;99746.64;1660694;86;21530;-70
2022/09/24 09:16:37;;;;;;;5.97;2.27;;;;;;;14.34;95.08;99742.95;1660689;86;21075;-68
2022/09/24 09:19:07;;;;;;;2.33;2.12;;;;;;;14.32;94.38;99749.66;1660177;86;21103;-69
2022/09/24 09:21:41;;;;;;;2.92;2.02;;;;;;;14.33;94.73;99747.38;1660516;86;27311;-69
2022/09/24 09:24:22;;;;;;;2.62;1.80;;;;;;;14.50;93.89;99749.05;1660445;86;21087;-69
2022/09/24 09:26:50;;;;;;;2.20;1.90;;;;;;;14.81;95.41;99742.77;1660747;86;21144;-68
2022/09/24 09:29:16;;;;;;;2.05;1.85;;;;;;;15.09;89.08;99735.77;1630064;86;21119;-68
2022/09/24 09:32:20;;;;;;;4.22;1.92;;;;;;;15.20;90.60;99736.45;1662780;85;21083;-68
2022/09/24 09:35:07;;;;;;;4.10;2.10;;;;;;;15.24;79.27;99732.18;1663528;85;21619;-68
2022/09/24 09:38:23;;;;;;;1.80;1.70;;;;;;;15.41;80.85;99738.22;1685758;85;21036;-67
2022/09/24 09:41:33;;;;;;;4.97;2.02;;;;;;;15.84;79.02;99734.18;1685799;85;21048;-69
2022/09/24 09:44:14;;;;;;;8.40;2.02;;;;;;;16.05;67.89;99731.44;1670843;85;21505;-68
2022/09/24 09:47:01;;;;;;;4.75;2.17;;;;;;;15.89;67.97;99734.72;1667288;85;27179;-69
2022/09/24 09:49:32;;;;;;;2.77;2.10;;;;;;;15.64;68.44;99731.44;1685513;85;21156;-68
2022/09/24 09:52:01;;;;;;;2.20;2.00;;;;;;;15.44;70.71;99734.06;1685607;85;21049;-69
2022/09/24 09:54:37;;;;;;;6.62;2.95;;;;;;;15.26;71.52;99732.94;1689018;83;21080;-71
2022/09/24 09:57:05;;;;;;;4.72;2.17;;;;;;;15.06;72.12;99728.86;1720280;83;21102;-69
2022/09/24 09:59:34;;;;;;;4.47;2.00;;;;;;;14.86;73.58;99734.09;1720514;83;21071;-67
2022/09/24 10:02:02;;;;;;;2.67;2.40;;;;;;;14.60;73.91;99734.32;1720560;83;21584;-68
2022/09/24 10:04:40;;;;;;;2.52;2.25;;;;;;;14.31;75.36;99738.69;1679054;83;21610;-68
2022/09/24 10:07:15;;;;;;;5.97;2.20;;;;;;;14.05;77.00;99738.38;1720345;83;21555;-67
2022/09/24 10:09:44;;;;;;;4.42;2.60;;;;;;;13.90;78.33;99738.44;1720441;82;21614;-68
2022/09/24 10:12:20;;;;;;;2.50;2.30;;;;;;;13.81;78.98;99739.80;1719951;83;21091;-68
2022/09/24 10:15:03;;;;;;;6.42;2.45;;;;;;;13.81;79.72;99739.80;1720136;83;21078;-68
2022/09/24 10:17:36;;;;;;;3.67;2.10;;;;;;;13.78;79.27;99736.86;1720567;83;21096;-68
2022/09/24 10:20:26;;;;;;;3.95;2.27;;;;;;;13.82;78.80;99734.87;1720582;83;21035;-67
2022/09/24 10:23:05;;;;;;;2.83;2.30;;;;;;;14.11;78.76;99731.05;1720657;83;21088;-67
2022/09/24 10:25:33;;;;;;;2.90;2.58;;;;;;;14.40;78.37;99727.55;1720797;83;21623;-68
2022/09/24 10:30:57;;;;;;;5.75;2.12;;;;;;;14.99;74.72;99730.67;1720397;83;21052;-68
2022/09/24 10:33:24;;;;;;;4.17;2.45;;;;;;;15.14;72.69;99731.06;1720329;82;21106;-68
2022/09/24 10:35:54;;;;;;;3.35;2.20;;;;;;;15.31;72.49;99728.19;1720608;83;21056;-69
2022/09/24 10:38:23;;;;;;;2.57;2.20;;;;;;;15.52;71.24;99735.73;1701581;83;21048;-67
2022/09/24 10:40:50;;;;;;;4.10;2.10;;;;;;;15.57;71.46;99730.14;1720793;83;21162;-67
2022/09/24 10:43:20;;;;;;;4.22;2.27;;;;;;;15.60;71.00;99733.46;1720471;83;21039;-68
2022/09/24 10:46:01;;;;;;;3.12;2.47;;;;;;;15.66;69.64;99736.19;1720493;83;21051;-70
2022/09/24 10:48:33;;;;;;;2.83;2.55;;;;;;;15.71;70.13;99730.12;1720845;83;21133;-69
2022/09/24 10:51:14;;;;;;;2.37;2.17;;;;;;;15.95;68.63;99735.66;1720170;83;21551;-68
2022/09/24 10:54:07;;;;;;;3.02;2.30;;;;;;;16.09;67.46;99735.59;1720272;83;25690;-67
2022/09/24 10:56:39;;;;;;;2.98;2.40;;;;;;;16.20;66.64;99734.05;1720400;83;21026;-67
2022/09/24 10:59:20;;;;;;;4.97;2.55;;;;;;;16.19;66.33;99736.31;1720448;83;21053;-67
2022/09/24 11:02:12;;;;;;;3.85;1.90;;;;;;;16.19;65.75;99741.14;1720585;83;21045;-69
2022/09/24 11:04:52;;;;;;;3.87;2.62;;;;;;;16.04;66.06;99739.04;1720525;83;22315;-68
2022/09/24 11:07:51;;;;;;;2.75;2.27;;;;;;;16.02;67.15;99736.95;1720740;83;21159;-68
2022/09/24 11:10:47;;;;;;;3.60;2.50;;;;;;;16.38;66.20;99728.83;1720627;83;21120;-67
2022/09/24 11:13:42;;;;;;;4.45;2.35;;;;;;;16.48;64.38;99731.70;1720896;83;21042;-68
2022/09/24 11:16:48;;;;;;;5.08;2.50;;;;;;;16.52;64.04;99738.04;1720391;83;21057;-68
2022/09/24 11:19:20;;;;;;;2.35;2.15;;;;;;;16.54;62.86;99740.13;1720658;83;21109;-67
2022/09/24 11:22:14;;;;;;;5.10;2.50;;;;;;;16.58;62.92;99741.59;1720731;83;21104;-70
2022/09/24 11:24:53;;;;;;;2.50;2.30;;;;;;;16.64;61.69;99728.38;1720618;83;21041;-69
2022/09/24 11:27:52;;;;;;;2.33;2.12;;;;;;;16.65;61.27;99727.89;1720541;83;21557;-68
2022/09/24 11:30:23;;;;;;;2.65;2.27;;;;;;;16.54;60.99;99741.45;1685926;84;21097;-69
2022/09/24 11:33:20;;;;;;;3.20;2.37;;;;;;;16.51;60.92;99740.80;1684070;85;21128;-68
2022/09/24 11:36:10;;;;;;;2.92;2.37;;;;;;;16.51;61.49;99736.80;1678468;85;21120;-68
2022/09/24 11:39:07;;;;;;;3.83;2.30;;;;;;;16.57;61.27;99729.27;1713043;83;21070;-67
2022/09/24 11:41:54;;;;;;;3.17;2.80;;;;;;;16.78;60.77;99730.08;1678295;85;21695;-68
2022/09/24 11:44:30;;;;;;;4.75;2.60;;;;;;;17.02;59.40;99725.37;1677818;85;21092;-68
2022/09/24 11:47:15;;;;;;;5.90;3.37;;;;;;;16.91;60.34;99732.30;1677784;85;21089;-70
2022/09/24 11:50:07;;;;;;;6.42;3.22;;;;;;;16.81;61.16;99727.23;1713302;83;21109;-69
2022/09/24 11:52:42;;;;;;;11.73;5.92;;;;;;;16.74;60.07;99733.42;1712709;83;21042;-68
2022/09/24 11:55:24;;;;;;;6.72;3.08;;;;;;;16.66;60.46;99722.96;1713069;83;21560;-68
2022/09/24 11:58:17;;;;;;;3.92;2.50;;;;;;;16.66;61.06;99725.63;1712783;83;21079;-68
2022/09/24 12:00:54;;;;;;;3.98;2.80;;;;;;;16.75;60.26;99719.67;1713414;82;21616;-67
2022/09/24 12:04:05;;;;;;;4.37;2.70;;;;;;;16.92;60.12;99724.68;1713050;83;21198;-67